Time;durP1;ratioP1;P1;durP2;ratioP2;P2;SDS_P1;SDS_P2;PMS_P1;PMS_P2;Temp;Humidity;BMP_temperature;BMP_pressure;BME280_temperature;BME280_humidity;BME280_pressure;Samples;Min_cycle;Max_cycle;Signal;HPM_P1;HPM_P2
2022/04/04 00:01:37;;;;;;;;;;;;;;;1.41;50.89;100462.70;1727444;83;20673;-71
2022/04/04 00:04:04;;;;;;;;;;;;;;;1.41;51.00;100462.70;1728144;83;20262;-70
2022/04/04 00:06:31;;;;;;;;;;;;;;;1.43;51.09;100458.20;1730982;82;20504;-70
2022/04/04 00:08:57;;;;;;;;;;;;;;;1.43;51.19;100452.95;1682237;84;20522;-70
2022/04/04 00:11:23;;;;;;;;;;;;;;;1.44;51.34;100454.60;1700017;83;20280;-70
2022/04/04 00:13:49;;;;;;;;;;;;;;;1.43;51.44;100450.32;1728275;81;21673;-70
2022/04/04 00:16:15;;;;;;;;;;;;;;;1.43;51.58;100454.26;1724642;83;20176;-70
2022/04/04 00:18:41;;;;;;;;;;;;;;;1.44;51.67;100457.23;1712999;83;20236;-70
2022/04/04 00:21:07;;;;;;;;;;;;;;;1.44;51.79;100450.66;1713332;83;20200;-70
2022/04/04 00:23:32;;;;;;;;;;;;;;;1.44;51.90;100445.91;1712754;83;20236;-70
2022/04/04 00:25:58;;;;;;;;;;;;;;;1.43;52.01;100442.44;1713294;83;21084;-70
2022/04/04 00:28:24;;;;;;;;;;;;;;;1.41;52.15;100440.37;1713118;83;20291;-71
2022/04/04 00:30:50;;;;;;;;;;;;;;;1.42;52.25;100439.91;1712922;83;20662;-70
2022/04/04 00:33:16;;;;;;;;;;;;;;;1.43;52.40;100437.18;1705685;83;20173;-71
2022/04/04 00:35:42;;;;;;;;;;;;;;;1.46;52.52;100434.33;1696159;83;20224;-70
2022/04/04 00:38:10;;;;;;;;;;;;;;;1.51;52.64;100437.44;1713196;83;21727;-70
2022/04/04 00:40:36;;;;;;;;;;;;;;;1.55;52.78;100438.56;1712214;83;20175;-70
2022/04/04 00:43:01;;;;;;;;;;;;;;;1.58;52.90;100438.33;1713291;83;20250;-70
2022/04/04 00:45:27;;;;;;;;;;;;;;;1.60;53.05;100434.63;1699149;82;20198;-70
2022/04/04 00:47:53;;;;;;;;;;;;;;;1.61;53.32;100431.06;1684019;85;20186;-70
2022/04/04 00:50:19;;;;;;;;;;;;;;;1.61;53.50;100428.91;1684184;85;21183;-70
2022/04/04 00:52:45;;;;;;;;;;;;;;;1.60;53.62;100428.53;1678865;85;20236;-70
2022/04/04 00:55:11;;;;;;;;;;;;;;;1.59;53.79;100431.63;1684297;85;20262;-70
2022/04/04 00:57:39;;;;;;;;;;;;;;;1.59;54.01;100432.11;1683899;84;20240;-70
2022/04/04 01:00:09;;;;;;;;;;;;;;;1.55;54.24;100424.92;1685899;84;20208;-70
2022/04/04 01:02:36;;;;;;;;;;;;;;;1.54;54.42;100419.80;1693310;84;21176;-70
2022/04/04 01:05:02;;;;;;;;;;;;;;;1.51;54.56;100416.42;1683806;83;20177;-70
2022/04/04 01:07:29;;;;;;;;;;;;;;;1.51;54.73;100412.98;1685109;84;20277;-70
2022/04/04 01:09:55;;;;;;;;;;;;;;;1.50;54.85;100413.45;1648333;84;20201;-70
2022/04/04 01:12:22;;;;;;;;;;;;;;;1.47;55.03;100422.03;1686377;84;20187;-70
2022/04/04 01:14:48;;;;;;;;;;;;;;;1.46;55.17;100417.72;1685009;84;21173;-70
2022/04/04 01:17:16;;;;;;;;;;;;;;;1.44;55.30;100413.06;1668987;84;20159;-70
2022/04/04 01:19:43;;;;;;;;;;;;;;;1.42;55.50;100415.79;1689217;84;20472;-70
2022/04/04 01:22:10;;;;;;;;;;;;;;;1.38;55.72;100414.33;1684519;85;20226;-70
2022/04/04 01:24:37;;;;;;;;;;;;;;;1.35;55.96;100410.62;1694768;84;20462;-70
2022/04/04 01:27:03;;;;;;;;;;;;;;;1.32;56.23;100413.47;1691123;84;21147;-70
2022/04/04 01:29:29;;;;;;;;;;;;;;;1.29;56.63;100407.59;1689361;84;20160;-70
2022/04/04 01:31:54;;;;;;;;;;;;;;;1.25;56.83;100409.61;1684492;85;20198;-70
2022/04/04 01:34:22;;;;;;;;;;;;;;;1.24;57.10;100401.36;1679585;85;20725;-70
2022/04/04 01:36:48;;;;;;;;;;;;;;;1.22;57.32;100398.02;1684722;85;20199;-70
2022/04/04 01:39:14;;;;;;;;;;;;;;;1.20;57.52;100388.08;1684978;85;21985;-70
2022/04/04 01:41:40;;;;;;;;;;;;;;;1.15;57.74;100390.21;1684922;85;20298;-70
2022/04/04 01:44:07;;;;;;;;;;;;;;;1.06;57.95;100384.29;1684855;85;20176;-70
2022/04/04 01:46:32;;;;;;;;;;;;;;;1.01;58.22;100385.11;1698548;84;20167;-70
2022/04/04 01:49:01;;;;;;;;;;;;;;;0.98;58.42;100382.71;1699366;84;20182;-70
2022/04/04 01:51:27;;;;;;;;;;;;;;;0.93;58.66;100380.88;1703021;84;21170;-70
2022/04/04 01:53:54;;;;;;;;;;;;;;;0.91;58.87;100382.78;1704381;84;20187;-70
2022/04/04 01:56:20;;;;;;;;;;;;;;;0.87;59.08;100376.06;1704644;84;20175;-70
2022/04/04 01:58:45;;;;;;;;;;;;;;;0.85;59.33;100379.25;1704473;84;20829;-70
2022/04/04 02:01:17;;;;;;;;;;;;;;;0.82;59.54;100378.17;1704521;84;20405;-70
2022/04/04 02:03:45;;;;;;;;;;;;;;;0.82;59.77;100378.17;1704802;84;21138;-70
2022/04/04 02:06:10;;;;;;;;;;;;;;;0.78;60.00;100384.11;1704301;84;20190;-70
2022/04/04 02:08:37;;;;;;;;;;;;;;;0.73;60.17;100382.77;1704833;83;20214;-69
2022/04/04 02:11:03;;;;;;;;;;;;;;;0.71;60.37;100380.23;1707969;83;20499;-70
2022/04/04 02:13:29;;;;;;;;;;;;;;;0.68;60.56;100384.86;1704335;84;20488;-69
2022/04/04 02:16:01;;;;;;;;;;;;;;;0.65;60.75;100385.08;1695304;84;21183;-70
2022/04/04 02:18:29;;;;;;;;;;;;;;;0.64;60.89;100380.77;1691835;84;20466;-70
2022/04/04 02:20:55;;;;;;;;;;;;;;;0.63;61.09;100390.92;1683619;85;20195;-70
2022/04/04 02:23:20;;;;;;;;;;;;;;;0.64;61.22;100387.33;1684827;84;20195;-70
2022/04/04 02:25:47;;;;;;;;;;;;;;;0.64;61.36;100386.02;1684877;85;20274;-69
2022/04/04 02:28:13;;;;;;;;;;;;;;;0.62;61.50;100385.30;1691790;84;21132;-70
2022/04/04 02:30:43;;;;;;;;;;;;;;;0.62;61.65;100383.98;1689811;84;20241;-70
2022/04/04 02:33:09;;;;;;;;;;;;;;;0.61;61.76;100380.98;1686933;84;20219;-70
2022/04/04 02:35:35;;;;;;;;;;;;;;;0.60;61.89;100376.70;1719997;82;20294;-69
2022/04/04 02:38:01;;;;;;;;;;;;;;;0.60;62.04;100379.33;1687666;84;20276;-70
2022/04/04 02:40:26;;;;;;;;;;;;;;;0.61;62.19;100378.36;1722379;83;21161;-71
2022/04/04 02:42:52;;;;;;;;;;;;;;;0.60;62.33;100375.40;1703107;83;20216;-70
2022/04/04 02:45:18;;;;;;;;;;;;;;;0.61;62.47;100377.89;1706651;83;20198;-70
2022/04/04 02:47:44;;;;;;;;;;;;;;;0.63;62.60;100379.11;1715398;83;20194;-71
2022/04/04 02:50:10;;;;;;;;;;;;;;;0.64;62.70;100376.36;1704434;82;20252;-70
2022/04/04 02:52:36;;;;;;;;;;;;;;;0.65;62.83;100365.40;1721579;83;21135;-70
2022/04/04 02:56:28;;;;;;;;;;;;;;;0.66;62.98;100369.24;1709428;83;20307;-70
2022/04/04 02:57:30;;;;;;;;;;;;;;;0.70;63.09;100361.99;1699922;83;20520;-70
2022/04/04 02:59:56;;;;;;;;;;;;;;;0.72;63.21;100367.48;1703114;83;20204;-70
2022/04/04 03:02:23;;;;;;;;;;;;;;;0.73;63.35;100363.08;1717439;83;20262;-70
2022/04/04 03:04:49;;;;;;;;;;;;;;;0.74;63.47;100366.89;1716862;83;21003;-70
2022/04/04 03:07:16;;;;;;;;;;;;;;;0.72;63.62;100365.33;1684758;83;20250;-70
2022/04/04 03:09:42;;;;;;;;;;;;;;;0.69;63.70;100361.15;1719999;82;20209;-70
2022/04/04 03:12:09;;;;;;;;;;;;;;;0.66;63.81;100365.77;1693985;83;20197;-70
2022/04/04 03:14:35;;;;;;;;;;;;;;;0.63;63.92;100360.75;1699641;82;21230;-70
2022/04/04 03:17:00;;;;;;;;;;;;;;;0.61;64.04;100360.00;1713968;82;21039;-70
2022/04/04 03:19:27;;;;;;;;;;;;;;;0.58;64.19;100354.97;1713967;82;20216;-70
2022/04/04 03:21:55;;;;;;;;;;;;;;;0.56;64.28;100360.81;1714197;83;20182;-70
2022/04/04 03:24:21;;;;;;;;;;;;;;;0.52;64.42;100355.41;1714056;83;20166;-70
2022/04/04 03:26:47;;;;;;;;;;;;;;;0.49;64.54;100352.53;1714710;83;20284;-70
2022/04/04 03:29:12;;;;;;;;;;;;;;;0.46;64.64;100349.63;1714281;83;21170;-70
2022/04/04 03:31:38;;;;;;;;;;;;;;;0.43;64.71;100355.09;1714021;83;20579;-70
2022/04/04 03:34:04;;;;;;;;;;;;;;;0.41;64.79;100357.47;1714261;83;20252;-70
2022/04/04 03:36:30;;;;;;;;;;;;;;;0.40;64.91;100347.44;1714335;83;20177;-70
2022/04/04 03:38:56;;;;;;;;;;;;;;;0.43;65.07;100347.22;1714351;83;20173;-70
2022/04/04 03:41:22;;;;;;;;;;;;;;;0.44;65.19;100343.66;1700521;83;21805;-70
2022/04/04 03:43:47;;;;;;;;;;;;;;;0.48;65.32;100341.20;1713333;83;20228;-70
2022/04/04 03:46:14;;;;;;;;;;;;;;;0.50;65.39;100345.01;1709837;83;20185;-70
2022/04/04 03:48:40;;;;;;;;;;;;;;;0.52;65.48;100344.91;1693525;84;20140;-70
2022/04/04 03:51:06;;;;;;;;;;;;;;;0.50;65.58;100345.01;1704731;83;20192;-70
2022/04/04 03:53:32;;;;;;;;;;;;;;;0.47;65.67;100343.45;1655988;86;21081;-70
2022/04/04 03:55:58;;;;;;;;;;;;;;;0.47;65.78;100339.98;1705777;83;20254;-70
2022/04/04 03:58:24;;;;;;;;;;;;;;;0.44;65.84;100329.23;1657765;85;20405;-70
2022/04/04 04:00:50;;;;;;;;;;;;;;;0.43;65.93;100334.11;1671781;84;20339;-70
2022/04/04 04:03:16;;;;;;;;;;;;;;;0.41;66.02;100333.39;1696093;84;20220;-70
2022/04/04 04:05:42;;;;;;;;;;;;;;;0.37;66.14;100331.92;1708924;83;21737;-70
2022/04/04 04:08:08;;;;;;;;;;;;;;;0.36;66.25;100327.61;1698925;83;20858;-69
2022/04/04 04:10:34;;;;;;;;;;;;;;;0.36;66.38;100325.45;1686593;84;20514;-70
2022/04/04 04:13:05;;;;;;;;;;;;;;;0.34;66.48;100328.20;1694874;83;20171;-70
2022/04/04 04:15:28;;;;;;;;;;;;;;;0.34;66.55;100329.52;1704151;83;20151;-71
2022/04/04 04:17:54;;;;;;;;;;;;;;;0.32;66.66;100326.15;1704641;84;21168;-70
2022/04/04 04:20:20;;;;;;;;;;;;;;;0.33;66.75;100327.83;1704792;83;20191;-69
2022/04/04 04:22:52;;;;;;;;;;;;;;;0.34;66.84;100328.20;1686978;85;20175;-70
2022/04/04 04:25:19;;;;;;;;;;;;;;;0.33;66.91;100326.52;1684548;84;20176;-70
2022/04/04 04:27:46;;;;;;;;;;;;;;;0.29;66.97;100319.80;1718316;83;20192;-69
2022/04/04 04:30:13;;;;;;;;;;;;;;;0.28;67.09;100322.05;1721790;83;21104;-70
2022/04/04 04:32:44;;;;;;;;;;;;;;;0.27;67.18;100323.02;1721582;83;20162;-70
2022/04/04 04:35:11;;;;;;;;;;;;;;;0.27;67.25;100319.55;1719442;83;20642;-69
2022/04/04 04:37:37;;;;;;;;;;;;;;;0.27;67.35;100319.09;1656129;85;20515;-70
2022/04/04 04:40:04;;;;;;;;;;;;;;;0.26;67.41;100321.34;1710615;83;20199;-70
2022/04/04 04:42:32;;;;;;;;;;;;;;;0.31;67.50;100317.94;1700824;83;21891;-70
2022/04/04 04:44:57;;;;;;;;;;;;;;;0.33;67.56;100319.97;1705024;83;20172;-69
2022/04/04 04:47:24;;;;;;;;;;;;;;;0.31;67.57;100314.47;1727401;81;20202;-70
2022/04/04 04:49:50;;;;;;;;;;;;;;;0.30;67.64;100317.56;1697839;84;20194;-70
2022/04/04 04:52:17;;;;;;;;;;;;;;;0.30;67.70;100320.19;1706564;84;20377;-70
2022/04/04 04:54:44;;;;;;;;;;;;;;;0.50;67.86;100316.15;1706374;84;21146;-69
2022/04/04 04:57:09;;;;;;;;;;;;;;;1.31;68.14;100316.38;1706383;84;20169;-70
2022/04/04 04:59:35;;;;;;;;;;;;;;;2.18;68.07;100316.70;1705084;84;20220;-70
2022/04/04 05:02:01;;;;;;;;;;;;;;;2.87;67.93;100318.70;1706404;84;20219;-70
2022/04/04 05:04:27;;;;;;;;;;;;;;;3.25;67.62;100309.84;1706197;84;20287;-70
2022/04/04 05:06:53;;;;;;;;;;;;;;;3.06;67.30;100312.33;1706325;84;21109;-70
2022/04/04 05:09:19;;;;;;;;;;;;;;;2.41;66.94;100310.50;1706082;84;20271;-70
2022/04/04 05:11:45;;;;;;;;;;;;;;;2.07;66.98;100311.45;1706273;84;20275;-70
2022/04/04 05:14:17;;;;;;;;;;;;;;;3.10;67.26;100307.13;1704989;84;20173;-70
2022/04/04 05:16:43;;;;;;;;;;;;;;;3.88;66.96;100312.89;1706526;84;20236;-70
2022/04/04 05:19:11;;;;;;;;;;;;;;;4.59;66.50;100303.70;1706510;84;21201;-70
2022/04/04 05:21:38;;;;;;;;;;;;;;;5.06;66.09;100306.96;1706403;84;20178;-70
2022/04/04 05:24:05;;;;;;;;;;;;;;;5.30;65.55;100303.44;1706294;84;20190;-70
2022/04/04 05:26:32;;;;;;;;;;;;;;;5.46;65.13;100302.38;1706346;84;20185;-70
2022/04/04 05:28:57;;;;;;;;;;;;;;;5.47;64.62;100297.45;1706024;84;20206;-70
2022/04/04 05:31:23;;;;;;;;;;;;;;;5.45;64.00;100307.31;1706233;84;21723;-70
2022/04/04 05:33:49;;;;;;;;;;;;;;;5.22;63.10;100307.25;1706164;84;20295;-70
2022/04/04 05:36:15;;;;;;;;;;;;;;;4.83;62.67;100307.67;1706149;84;20958;-70
2022/04/04 05:38:41;;;;;;;;;;;;;;;4.34;62.70;100310.28;1674524;85;20246;-70
2022/04/04 05:41:07;;;;;;;;;;;;;;;4.11;62.84;100308.31;1704105;84;20233;-70
2022/04/04 05:43:33;;;;;;;;;;;;;;;3.97;62.96;100313.45;1698183;84;21085;-71
2022/04/04 05:45:59;;;;;;;;;;;;;;;3.69;63.00;100306.66;1705290;83;20880;-70
2022/04/04 05:48:30;;;;;;;;;;;;;;;3.75;63.02;100319.33;1684663;85;20222;-70
2022/04/04 05:50:53;;;;;;;;;;;;;;;3.76;62.93;100314.41;1683768;85;20464;-70
2022/04/04 05:53:19;;;;;;;;;;;;;;;3.83;62.90;100324.33;1684806;85;20207;-71
2022/04/04 05:55:45;;;;;;;;;;;;;;;3.82;62.84;100320.01;1684643;85;22153;-71
2022/04/04 05:58:12;;;;;;;;;;;;;;;3.81;62.75;100326.72;1702242;84;20299;-71
2022/04/04 06:00:37;;;;;;;;;;;;;;;3.85;62.69;100328.14;1702309;84;20230;-71
2022/04/04 06:03:03;;;;;;;;;;;;;;;3.97;62.62;100323.16;1702105;84;20196;-71
2022/04/04 06:05:30;;;;;;;;;;;;;;;4.01;62.50;100327.22;1702393;84;20328;-71
2022/04/04 06:07:56;;;;;;;;;;;;;;;4.08;62.38;100327.53;1702412;84;21027;-70
2022/04/04 06:10:22;;;;;;;;;;;;;;;4.03;62.30;100325.27;1701236;84;20906;-71
2022/04/04 06:12:48;;;;;;;;;;;;;;;4.17;62.22;100319.66;1702167;84;20272;-70
2022/04/04 06:15:15;;;;;;;;;;;;;;;4.16;62.09;100323.73;1700787;84;20188;-70
2022/04/04 06:17:42;;;;;;;;;;;;;;;4.23;62.03;100321.77;1702492;84;20518;-71
2022/04/04 06:20:09;;;;;;;;;;;;;;;4.29;61.90;100315.95;1702275;84;21767;-71
2022/04/04 06:22:36;;;;;;;;;;;;;;;4.39;61.83;100311.58;1702404;84;20479;-71
2022/04/04 06:25:03;;;;;;;;;;;;;;;4.52;61.72;100314.81;1675550;84;20637;-71
2022/04/04 06:27:30;;;;;;;;;;;;;;;4.58;61.63;100307.31;1684793;85;20216;-71
2022/04/04 06:29:57;;;;;;;;;;;;;;;4.57;61.51;100299.05;1684995;85;20449;-71
2022/04/04 06:32:25;;;;;;;;;;;;;;;4.73;61.45;100296.73;1684583;85;21988;-72
2022/04/04 06:34:51;;;;;;;;;;;;;;;4.83;61.31;100302.86;1701986;84;20351;-71
2022/04/04 06:37:17;;;;;;;;;;;;;;;4.99;61.22;100301.87;1702418;84;20972;-71
2022/04/04 06:39:43;;;;;;;;;;;;;;;5.01;61.09;100287.55;1696582;84;20172;-71
2022/04/04 06:42:08;;;;;;;;;;;;;;;5.12;61.02;100290.55;1701415;84;20174;-71
2022/04/04 06:44:35;;;;;;;;;;;;;;;5.12;60.82;100289.23;1697539;84;21970;-71
2022/04/04 06:47:01;;;;;;;;;;;;;;;5.08;60.68;100286.98;1703697;83;20477;-72
2022/04/04 06:49:27;;;;;;;;;;;;;;;5.11;60.61;100286.22;1704852;84;20212;-71
2022/04/04 06:51:53;;;;;;;;;;;;;;;5.33;60.55;100287.29;1709849;83;20219;-71
2022/04/04 06:54:19;;;;;;;;;;;;;;;5.44;60.41;100275.73;1713979;83;20212;-71
2022/04/04 06:56:47;;;;;;;;;;;;;;;5.59;60.32;100274.82;1711684;83;21155;-72
2022/04/04 06:59:13;;;;;;;;;;;;;;;5.71;60.18;100277.16;1713456;83;20182;-72
2022/04/04 07:01:40;;;;;;;;;;;;;;;5.76;60.04;100272.77;1713557;83;20248;-72
2022/04/04 07:04:06;;;;;;;;;;;;;;;5.89;59.96;100272.00;1713464;83;20213;-72
2022/04/04 07:06:32;;;;;;;;;;;;;;;5.92;59.78;100269.06;1713433;83;20177;-72
2022/04/04 07:08:58;;;;;;;;;;;;;;;6.06;59.70;100264.64;1713686;83;21174;-71
2022/04/04 07:11:23;;;;;;;;;;;;;;;6.16;59.54;100260.14;1708103;83;20891;-72
2022/04/04 07:13:50;;;;;;;;;;;;;;;6.20;59.40;100260.20;1713403;83;20200;-72
2022/04/04 07:16:16;;;;;;;;;;;;;;;6.38;59.32;100257.13;1700291;83;20237;-72
2022/04/04 07:18:42;;;;;;;;;;;;;;;6.62;59.21;100257.06;1713425;83;20243;-73
2022/04/04 07:21:08;;;;;;;;;;;;;;;6.78;58.98;100245.34;1709189;83;21161;-72
2022/04/04 07:23:34;;;;;;;;;;;;;;;6.71;58.71;100241.63;1686258;83;20309;-73
2022/04/04 07:26:00;;;;;;;;;;;;;;;6.51;58.42;100239.07;1707850;83;20251;-70
2022/04/04 07:28:25;;;;;;;;;;;;;;;6.56;58.30;100215.28;1713847;83;20349;-71
2022/04/04 07:30:53;;;;;;;;;;;;;;;6.56;58.12;100228.52;1713209;83;20208;-72
2022/04/04 07:33:19;;;;;;;;;;;;;;;6.70;57.98;100228.02;1713719;83;23245;-72
2022/04/04 07:35:45;;;;;;;;;;;;;;;6.77;57.82;100218.48;1710542;83;20480;-72
2022/04/04 07:38:11;;;;;;;;;;;;;;;6.93;57.70;100214.70;1699938;83;20259;-72
2022/04/04 07:40:37;;;;;;;;;;;;;;;6.82;57.50;100213.09;1713414;81;20188;-73
2022/04/04 07:43:03;;;;;;;;;;;;;;;6.68;57.31;100205.66;1713950;81;20218;-72
2022/04/04 07:45:30;;;;;;;;;;;;;;;6.64;57.18;100199.48;1704755;84;21951;-72
2022/04/04 07:47:56;;;;;;;;;;;;;;;6.87;57.16;100194.07;1706030;83;20181;-72
2022/04/04 07:50:22;;;;;;;;;;;;;;;7.06;57.03;100191.28;1706453;83;20446;-71
2022/04/04 07:52:48;;;;;;;;;;;;;;;7.05;56.85;100194.91;1713623;83;20269;-72
2022/04/04 07:55:14;;;;;;;;;;;;;;;6.96;56.65;100190.53;1709683;83;20173;-72
2022/04/04 07:57:39;;;;;;;;;;;;;;;7.13;56.57;100180.41;1704578;83;21021;-72
2022/04/04 08:00:07;;;;;;;;;;;;;;;7.40;56.33;100175.45;1706503;82;20895;-72
2022/04/04 08:02:33;;;;;;;;;;;;;;;7.50;56.07;100169.06;1707386;81;20240;-72
2022/04/04 08:04:59;;;;;;;;;;;;;;;7.52;55.87;100168.44;1713204;83;20197;-72
2022/04/04 08:07:25;;;;;;;;;;;;;;;7.65;55.72;100165.84;1713934;83;20859;-72
2022/04/04 08:09:51;;;;;;;;;;;;;;;7.73;55.57;100156.61;1712547;83;21210;-73
2022/04/04 08:12:17;;;;;;;;;;;;;;;7.71;55.28;100155.91;1712803;82;20333;-73
2022/04/04 08:14:45;;;;;;;;;;;;;;;7.79;55.10;100151.98;1713539;83;20279;-73
2022/04/04 08:17:12;;;;;;;;;;;;;;;7.80;54.83;100149.67;1691585;83;20212;-72
2022/04/04 08:19:38;;;;;;;;;;;;;;;7.80;54.55;100142.55;1704222;83;20210;-72
2022/04/04 08:22:04;;;;;;;;;;;;;;;8.04;54.42;100141.33;1713875;83;21869;-72
2022/04/04 08:24:30;;;;;;;;;;;;;;;8.20;54.16;100139.20;1714115;83;20314;-72
2022/04/04 08:26:56;;;;;;;;;;;;;;;8.18;53.79;100136.39;1713573;83;20291;-72
2022/04/04 08:29:23;;;;;;;;;;;;;;;8.03;53.42;100131.69;1713670;83;20201;-72
2022/04/04 08:31:49;;;;;;;;;;;;;;;7.94;53.19;100135.31;1709569;83;20228;-72
2022/04/04 08:34:15;;;;;;;;;;;;;;;7.81;52.81;100134.09;1710069;83;21126;-73
2022/04/04 08:36:41;;;;;;;;;;;;;;;7.80;52.63;100124.45;1707475;83;20328;-73
2022/04/04 08:39:07;;;;;;;;;;;;;;;7.92;52.42;100112.55;1691368;83;20315;-69
2022/04/04 08:41:33;;;;;;;;;;;;;;;8.16;52.18;100117.97;1703821;83;20190;-68
2022/04/04 08:44:01;;;;;;;;;;;;;;;8.26;51.89;100100.07;1679821;83;20201;-69
2022/04/04 08:46:26;;;;;;;;;;;;;;;8.38;51.67;100098.78;1706338;83;21151;-68
2022/04/04 08:48:55;;;;;;;;;;;;;;;8.61;51.46;100099.00;1685650;83;20310;-69
2022/04/04 08:51:20;;;;;;;;;;;;;;;8.72;51.13;100097.84;1713869;83;20181;-68
2022/04/04 08:53:46;;;;;;;;;;;;;;;8.73;50.90;100092.84;1714059;83;20480;-68
2022/04/04 08:56:12;;;;;;;;;;;;;;;8.70;50.46;100082.53;1713096;83;20201;-69
2022/04/04 08:58:38;;;;;;;;;;;;;;;8.41;50.11;100076.36;1714281;83;21099;-69
2022/04/04 09:01:03;;;;;;;;;;;;;;;8.23;49.91;100077.82;1713671;83;20224;-68
2022/04/04 09:03:33;;;;;;;;;;;;;;;8.36;49.86;100078.69;1714161;81;20231;-68
2022/04/04 09:06:01;;;;;;;;;;;;;;;8.60;49.75;100077.39;1713749;83;20500;-69
2022/04/04 09:08:28;;;;;;;;;;;;;;;8.73;49.38;100070.23;1713570;83;20205;-68
2022/04/04 09:10:56;;;;;;;;;;;;;;;8.80;49.13;100068.08;1713690;83;21089;-68
2022/04/04 09:13:23;;;;;;;;;;;;;;;9.05;49.01;100054.27;1713580;83;20497;-69
2022/04/04 09:15:59;;;;;;;;;;;;;;;9.12;48.58;100060.58;1712379;83;20220;-68
2022/04/04 09:18:42;;;;;;;;;;;;;;;8.96;48.30;100055.30;1713665;83;20181;-68
2022/04/04 09:21:21;;;;;;;;;;;;;;;9.10;48.12;100051.95;1713683;83;20559;-69
2022/04/04 09:23:54;;;;;;;;;;;;;;;9.17;47.79;100043.63;1708019;83;21142;-68
2022/04/04 09:26:37;;;;;;;;;;;;;;;9.06;47.47;100041.31;1713576;83;20492;-70
2022/04/04 09:29:18;;;;;;;;;;;;;;;9.05;47.30;100032.98;1713918;83;20242;-69
2022/04/04 09:32:05;;;;;;;;;;;;;;;8.81;46.91;100033.03;1704202;83;20711;-70
2022/04/04 09:34:30;;;;;;;;;;;;;;;8.88;46.97;100015.41;1701273;83;20231;-69
2022/04/04 09:36:58;;;;;;;;;;;;;;;8.99;46.62;100005.75;1687270;83;22274;-71
2022/04/04 09:39:23;;;;;;;;;;;;;;;8.89;46.35;99992.64;1713820;83;20209;-70
2022/04/04 09:41:50;;;;;;;;;;;;;;;8.98;46.19;99985.46;1713769;83;20274;-69
2022/04/04 09:44:16;;;;;;;;;;;;;;;9.18;46.05;99986.77;1710223;83;20236;-70
2022/04/04 09:46:43;;;;;;;;;;;;;;;9.51;45.85;99974.14;1675849;85;20228;-69
2022/04/04 09:49:13;;;;;;;;;;;;;;;9.68;45.54;99989.52;1710321;83;21172;-68
2022/04/04 09:51:44;;;;;;;;;;;;;;;9.77;45.22;99973.36;1713411;83;20204;-69
2022/04/04 09:54:15;;;;;;;;;;;;;;;9.85;45.05;99959.97;1713754;83;20197;-69
2022/04/04 09:56:41;;;;;;;;;;;;;;;9.72;44.72;99953.56;1713741;83;20524;-69
2022/04/04 09:59:09;;;;;;;;;;;;;;;9.76;44.63;99946.89;1705177;83;20279;-69
2022/04/04 10:01:35;;;;;;;;;;;;;;;9.86;44.33;99956.81;1713643;83;21147;-69
2022/04/04 10:04:02;;;;;;;;;;;;;;;9.83;44.04;99947.34;1707390;82;20215;-68
2022/04/04 10:06:29;;;;;;;;;;;;;;;9.62;43.68;99923.67;1687242;83;20464;-68
2022/04/04 10:08:56;;;;;;;;;;;;;;;9.31;43.47;99923.68;1732790;82;20438;-68
2022/04/04 10:11:22;;;;;;;;;;;;;;;9.25;43.35;99919.89;1705053;82;20270;-68
2022/04/04 10:13:48;;;;;;;;;;;;;;;9.16;42.93;99912.93;1706660;83;21187;-68
2022/04/04 10:16:16;;;;;;;;;;;;;;;9.13;42.89;99902.64;1710630;81;20538;-69
2022/04/04 10:18:43;;;;;;;;;;;;;;;9.20;42.78;99880.16;1713660;83;20197;-68
2022/04/04 10:21:10;;;;;;;;;;;;;;;9.35;42.64;99881.92;1710381;83;20190;-69
2022/04/04 10:23:37;;;;;;;;;;;;;;;9.54;42.45;99881.95;1709666;82;20187;-68
2022/04/04 10:26:03;;;;;;;;;;;;;;;9.60;42.05;99877.28;1714362;82;21127;-68
2022/04/04 10:28:30;;;;;;;;;;;;;;;9.81;41.78;99865.98;1712819;82;20633;-68
2022/04/04 10:31:02;;;;;;;;;;;;;;;10.07;41.51;99868.25;1712744;82;20520;-68
2022/04/04 10:33:28;;;;;;;;;;;;;;;10.36;41.37;99843.87;1712225;82;20216;-69
2022/04/04 10:36:04;;;;;;;;;;;;;;;10.47;40.99;99861.25;1713753;83;20269;-69
2022/04/04 10:38:33;;;;;;;;;;;;;;;10.57;40.49;99859.64;1713880;83;21079;-68
2022/04/04 10:41:01;;;;;;;;;;;;;;;10.23;39.86;99849.00;1713336;83;20197;-68
2022/04/04 10:43:32;;;;;;;;;;;;;;;9.87;39.52;99846.62;1714153;82;20575;-68
2022/04/04 10:46:00;;;;;;;;;;;;;;;9.93;39.60;99855.22;1711017;82;20180;-69
2022/04/04 10:48:31;;;;;;;;;;;;;;;9.82;39.49;99848.98;1721467;82;20524;-69
2022/04/04 10:51:18;;;;;;;;;;;;;;;9.51;39.29;99832.58;1727672;83;21211;-68
2022/04/04 10:53:45;;;;;;;;;;;;;;;9.24;39.24;99834.41;1726370;83;20181;-69
2022/04/04 10:56:12;;;;;;;;;;;;;;;9.08;39.28;99829.16;1705194;83;20200;-69
2022/04/04 10:58:38;;;;;;;;;;;;;;;8.91;39.31;99828.92;1706441;83;20194;-69
2022/04/04 11:01:12;;;;;;;;;;;;;;;8.82;39.47;99829.47;1727061;83;20193;-69
2022/04/04 11:03:44;;;;;;;;;;;;;;;8.78;39.49;99799.41;1719857;83;20955;-69
2022/04/04 11:09:12;;;;;;;;;;;;;;;8.73;39.46;99805.23;1718493;83;20189;-68
2022/04/04 11:12:00;;;;;;;;;;;;;;;8.92;39.63;99801.34;1720221;83;20212;-69
2022/04/04 11:14:39;;;;;;;;;;;;;;;9.09;39.64;99795.42;1726752;83;20543;-69
2022/04/04 11:17:25;;;;;;;;;;;;;;;9.16;39.68;99782.58;1727545;83;21230;-69
2022/04/04 11:19:53;;;;;;;;;;;;;;;9.30;39.73;99769.84;1724161;83;20233;-69
2022/04/04 11:22:25;;;;;;;;;;;;;;;9.26;39.61;99777.85;1726662;83;20224;-68
2022/04/04 11:24:56;;;;;;;;;;;;;;;9.11;39.53;99771.66;1727169;83;20213;-68
2022/04/04 11:27:24;;;;;;;;;;;;;;;9.10;39.41;99766.00;1721316;83;20204;-68
2022/04/04 11:29:50;;;;;;;;;;;;;;;9.14;39.34;99764.65;1723733;83;21139;-69
2022/04/04 11:32:25;;;;;;;;;;;;;;;9.13;39.24;99752.34;1697475;84;20777;-68
2022/04/04 11:34:55;;;;;;;;;;;;;;;9.08;39.15;99740.06;1730566;83;20216;-69
2022/04/04 11:37:19;;;;;;;;;;;;;;;9.04;38.93;99736.13;1699447;84;20532;-76
2022/04/04 11:39:46;;;;;;;;;;;;;;;8.97;38.82;99744.48;1714157;83;20197;-69
2022/04/04 11:42:12;;;;;;;;;;;;;;;9.07;38.69;99732.28;1732361;83;21134;-69
2022/04/04 11:44:46;;;;;;;;;;;;;;;9.11;38.26;99720.28;1730195;81;20270;-69
2022/04/04 11:47:12;;;;;;;;;;;;;;;9.11;37.75;99703.00;1713587;83;20468;-69
2022/04/04 11:49:39;;;;;;;;;;;;;;;9.16;37.41;99716.08;1713260;83;20171;-69
2022/04/04 11:52:06;;;;;;;;;;;;;;;9.22;37.24;99701.25;1684956;84;20169;-69
2022/04/04 11:54:44;;;;;;;;;;;;;;;9.27;37.16;99701.03;1678658;85;21203;-69
2022/04/04 11:57:10;;;;;;;;;;;;;;;9.46;37.14;99677.90;1678725;85;20160;-69
2022/04/04 11:59:39;;;;;;;;;;;;;;;9.54;36.84;99688.98;1678997;85;20164;-69
2022/04/04 12:02:08;;;;;;;;;;;;;;;9.53;36.60;99668.19;1678621;85;20156;-69
2022/04/04 12:04:32;;;;;;;;;;;;;;;9.46;36.40;99663.80;1678910;84;20449;-69
2022/04/04 12:07:00;;;;;;;;;;;;;;;9.52;36.20;99663.06;1648159;85;21188;-69
2022/04/04 12:09:35;;;;;;;;;;;;;;;9.44;35.92;99657.80;1671486;86;20504;-69
2022/04/04 12:12:05;;;;;;;;;;;;;;;9.42;35.92;99643.36;1670596;86;20526;-69
2022/04/04 12:14:32;;;;;;;;;;;;;;;9.39;35.64;99631.72;1672106;84;20511;-69
2022/04/04 12:16:58;;;;;;;;;;;;;;;9.42;35.35;99634.05;1670158;85;20173;-69
2022/04/04 12:19:25;;;;;;;;;;;;;;;9.64;35.33;99622.98;1670139;85;21017;-69
2022/04/04 12:21:52;;;;;;;;;;;;;;;9.83;35.13;99614.97;1670209;86;20205;-69
2022/04/04 12:27:12;;;;;;;;;;;;;;;9.92;34.50;99605.89;1670266;86;20302;-69
2022/04/04 12:29:44;;;;;;;;;;;;;;;9.87;34.44;99582.47;1669793;86;20466;-69
2022/04/04 12:32:19;;;;;;;;;;;;;;;9.93;34.33;99583.55;1670144;86;21792;-69
2022/04/04 12:35:00;;;;;;;;;;;;;;;10.07;34.33;99572.05;1670180;86;20237;-69
2022/04/04 12:37:43;;;;;;;;;;;;;;;10.20;34.16;99562.09;1670251;86;20497;-69
2022/04/04 12:40:22;;;;;;;;;;;;;;;10.31;33.90;99566.41;1664459;84;20449;-69
2022/04/04 12:42:49;;;;;;;;;;;;;;;10.26;33.82;99566.16;1669590;85;20178;-69
2022/04/04 12:45:17;;;;;;;;;;;;;;;10.23;33.60;99541.23;1669978;86;21067;-69
2022/04/04 12:48:10;;;;;;;;;;;;;;;10.18;33.29;99546.29;1670188;85;20174;-69
2022/04/04 12:50:42;;;;;;;;;;;;;;;10.20;33.29;99535.45;1699860;84;20162;-69
2022/04/04 12:53:09;;;;;;;;;;;;;;;10.26;33.11;99523.53;1691896;84;20430;-69
2022/04/04 12:55:36;;;;;;;;;;;;;;;10.26;32.79;99509.38;1699673;83;20175;-69